createdAt,value
2018-12-27T00:01:21.747Z,102251.30
2018-12-27T00:05:26.749Z,102253.14
2018-12-27T00:09:31.788Z,102250.49
2018-12-27T00:13:36.912Z,102253.99
2018-12-27T00:17:41.890Z,102253.92
2018-12-27T00:21:46.829Z,102241.42
2018-12-27T00:25:52.278Z,102233.63
2018-12-27T00:30:00.722Z,102243.99
2018-12-27T00:34:07.394Z,102229.73
2018-12-27T00:38:12.496Z,102237.07
2018-12-27T00:42:17.539Z,102240.53
2018-12-27T00:46:22.583Z,102230.27
2018-12-27T00:50:27.715Z,102224.09
2018-12-27T00:54:32.730Z,102224.52
2018-12-27T00:58:37.858Z,102224.86
2018-12-27T01:02:42.871Z,102223.56
2018-12-27T01:06:47.886Z,102217.95
2018-12-27T01:10:53.274Z,102217.95
2018-12-27T01:14:58.380Z,102217.95
2018-12-27T01:19:03.744Z,102209.36
2018-12-27T01:23:08.782Z,102213.29
2018-12-27T01:27:13.821Z,102209.01
2018-12-27T01:31:18.845Z,102203.30
2018-12-27T01:35:23.888Z,102206.33
2018-12-27T01:39:29.035Z,102198.52
2018-12-27T01:43:34.066Z,102197.66
2018-12-27T01:47:39.183Z,102205.38
2018-12-27T01:51:44.232Z,102184.22
2018-12-27T01:55:49.305Z,102189.79
2018-12-27T01:59:55.104Z,102192.29
2018-12-27T02:04:00.214Z,102179.80
2018-12-27T02:08:05.241Z,102176.34
2018-12-27T02:12:10.402Z,102173.25
2018-12-27T02:16:15.415Z,102181.45
2018-12-27T02:20:21.483Z,102165.02
2018-12-27T02:24:26.565Z,102164.56
2018-12-27T02:28:31.567Z,102168.00
2018-12-27T02:32:36.855Z,102171.95
2018-12-27T02:36:41.908Z,102166.70
2018-12-27T02:40:46.994Z,102167.49
2018-12-27T02:44:52.030Z,102168.73
2018-12-27T02:48:57.272Z,102164.45
2018-12-27T02:53:02.412Z,102158.27
2018-12-27T02:57:07.451Z,102149.49
2018-12-27T03:01:12.523Z,102146.45
2018-12-27T03:05:17.564Z,102143.38
2018-12-27T03:09:22.611Z,102144.33
2018-12-27T03:13:27.737Z,102128.73
2018-12-27T03:17:32.779Z,102126.47
2018-12-27T03:21:37.821Z,102123.91
2018-12-27T03:25:42.956Z,102111.80
2018-12-27T03:29:47.998Z,102113.13
2018-12-27T03:33:53.112Z,102113.47
2018-12-27T03:37:58.135Z,102106.87
2018-12-27T03:42:03.139Z,102095.53
2018-12-27T03:46:08.209Z,102099.44
2018-12-27T03:50:13.305Z,102091.66
2018-12-27T03:54:18.348Z,102097.20
2018-12-27T03:58:23.536Z,102088.69
2018-12-27T04:02:28.615Z,102096.00
2018-12-27T04:06:33.679Z,102090.50
2018-12-27T04:10:38.725Z,102093.86
2018-12-27T04:14:43.866Z,102089.84
2018-12-27T04:18:49.142Z,102094.97
2018-12-27T04:22:54.531Z,102086.30
2018-12-27T04:26:59.594Z,102080.42
2018-12-27T04:31:04.952Z,102073.95
2018-12-27T04:35:10.300Z,102081.70
2018-12-27T04:39:15.409Z,102080.45
2018-12-27T04:43:31.196Z,102070.92
2018-12-27T04:47:36.247Z,102070.23
2018-12-27T04:51:41.353Z,102057.34
2018-12-27T04:55:46.405Z,102064.63
2018-12-27T04:59:51.463Z,102061.64
2018-12-27T05:03:56.516Z,102059.39
2018-12-27T05:08:01.662Z,102052.27
2018-12-27T05:12:06.733Z,102053.56
2018-12-27T05:16:11.771Z,102049.78
2018-12-27T05:20:16.917Z,102057.06
2018-12-27T05:24:22.006Z,102038.88
2018-12-27T05:28:27.081Z,102054.77
2018-12-27T05:32:32.068Z,102059.61
2018-12-27T05:36:37.037Z,102063.73
2018-12-27T05:40:42.079Z,102073.66
2018-12-27T05:44:47.157Z,102082.15
2018-12-27T05:48:52.184Z,102083.05
2018-12-27T05:52:57.249Z,102071.52
2018-12-27T05:57:02.309Z,102085.22
2018-12-27T06:01:07.353Z,102079.20
2018-12-27T06:05:12.459Z,102079.83
2018-12-27T06:09:17.556Z,102076.64
2018-12-27T06:13:24.088Z,102077.62
2018-12-27T06:17:29.222Z,102076.23
2018-12-27T06:21:34.397Z,102079.01
2018-12-27T06:25:51.293Z,102080.20
2018-12-27T06:29:56.534Z,102078.28
2018-12-27T06:34:01.613Z,102074.68
2018-12-27T06:38:06.713Z,102072.95
2018-12-27T06:42:11.860Z,102072.23
2018-12-27T06:46:16.843Z,102076.97
2018-12-27T06:50:21.802Z,102075.63
2018-12-27T06:54:26.899Z,102075.27
2018-12-27T06:58:37.719Z,102067.83
2018-12-27T07:02:57.806Z,102063.95
2018-12-27T07:07:02.904Z,102070.52
2018-12-27T07:11:07.970Z,102071.18
2018-12-27T07:15:13.115Z,102065.11
2018-12-27T07:19:19.790Z,102077.27
2018-12-27T07:23:24.936Z,102081.37
2018-12-27T07:27:29.944Z,102076.58
2018-12-27T07:31:34.972Z,102076.58
2018-12-27T07:35:40.033Z,102076.25
2018-12-27T07:39:45.085Z,102078.94
2018-12-27T07:43:51.860Z,102077.22
2018-12-27T07:47:56.938Z,102075.84
2018-12-27T07:52:01.996Z,102081.43
2018-12-27T07:56:07.066Z,102084.02
2018-12-27T08:00:12.147Z,102081.84
2018-12-27T08:04:17.249Z,102081.02
2018-12-27T08:08:22.223Z,102075.81
2018-12-27T08:12:27.260Z,102073.91
2018-12-27T08:16:32.337Z,102075.87
2018-12-27T08:20:48.432Z,102075.44
2018-12-27T08:24:53.521Z,102069.40
2018-12-27T08:28:58.644Z,102058.83
2018-12-27T08:33:05.511Z,102060.65
2018-12-27T08:37:10.543Z,102057.98
2018-12-27T08:41:15.596Z,102052.42
2018-12-27T08:45:20.783Z,102052.77
2018-12-27T08:49:25.938Z,102059.38
2018-12-27T08:53:31.060Z,102060.66
2018-12-27T08:57:36.165Z,102050.60
2018-12-27T09:01:41.255Z,102053.67
2018-12-27T09:05:46.436Z,102052.88
2018-12-27T09:09:51.509Z,102054.59
2018-12-27T09:13:56.862Z,102049.47
2018-12-27T09:18:01.919Z,102042.20
2018-12-27T09:22:07.174Z,102042.70
2018-12-27T09:26:31.337Z,102031.40
2018-12-27T09:30:48.447Z,102031.40
2018-12-27T09:35:02.282Z,102043.51
2018-12-27T09:39:07.658Z,102039.22
2018-12-27T09:43:12.660Z,102038.36
2018-12-27T09:47:17.711Z,102042.66
2018-12-27T09:51:22.843Z,102050.43
2018-12-27T09:55:27.830Z,102042.09
2018-12-27T09:59:32.921Z,102039.80
2018-12-27T10:03:37.998Z,102031.48
2018-12-27T10:07:43.061Z,102029.41
2018-12-27T10:11:48.177Z,102026.47
2018-12-27T10:15:53.332Z,102026.13
2018-12-27T10:19:58.405Z,102026.77
2018-12-27T10:24:03.341Z,102023.56
2018-12-27T10:28:08.298Z,102017.11
2018-12-27T10:32:13.319Z,102029.15
2018-12-27T10:36:18.396Z,102029.96
2018-12-27T10:40:23.340Z,102027.16
2018-12-27T10:44:28.409Z,102016.70
2018-12-27T10:48:33.337Z,102013.98
2018-12-27T10:52:38.396Z,101996.22
2018-12-27T10:56:43.509Z,101996.30
2018-12-27T11:01:00.096Z,101995.48
2018-12-27T11:05:05.577Z,101992.56
2018-12-27T11:09:10.899Z,101979.77
2018-12-27T11:13:15.987Z,101971.25
2018-12-27T11:17:21.623Z,101962.53
2018-12-27T11:21:26.674Z,101954.02
2018-12-27T11:25:31.742Z,101944.33
2018-12-27T11:29:36.677Z,101933.30
2018-12-27T11:33:41.754Z,101934.02
2018-12-27T11:37:46.803Z,101917.07
2018-12-27T11:41:51.853Z,101911.95
2018-12-27T11:45:56.826Z,101912.68
2018-12-27T11:50:01.892Z,101897.87
2018-12-27T11:54:06.968Z,101884.30
2018-12-27T11:58:12.009Z,101889.19
2018-12-27T12:02:17.090Z,101879.86
2018-12-27T12:06:22.165Z,101890.36
2018-12-27T12:10:27.232Z,101889.88
2018-12-27T12:14:32.199Z,101879.62
2018-12-27T12:18:37.291Z,101882.73
2018-12-27T12:22:43.951Z,101883.16
2018-12-27T12:26:49.078Z,101880.64
2018-12-27T12:30:54.213Z,101894.45
2018-12-27T12:34:59.379Z,101892.75
2018-12-27T12:39:16.353Z,101896.08
2018-12-27T12:43:21.308Z,101900.26
2018-12-27T12:47:26.653Z,101897.73
2018-12-27T12:51:33.306Z,101912.96
2018-12-27T12:55:38.364Z,101911.00
2018-12-27T12:59:43.425Z,101930.55
2018-12-27T13:08:05.672Z,101921.05
2018-12-27T13:12:10.627Z,101914.69
2018-12-27T13:16:15.743Z,101909.66
2018-12-27T13:20:20.706Z,101909.98
2018-12-27T13:24:25.795Z,101923.52
2018-12-27T13:28:30.843Z,101922.28
2018-12-27T13:32:35.904Z,101914.23
2018-12-27T13:36:40.934Z,101918.48
2018-12-27T13:40:46.084Z,101921.37
2018-12-27T13:44:51.200Z,101921.37
2018-12-27T13:48:56.374Z,101906.15
2018-12-27T13:53:01.469Z,101902.42
2018-12-27T13:57:06.454Z,101912.92
2018-12-27T14:01:11.443Z,101901.95
2018-12-27T14:05:16.518Z,101895.94
2018-12-27T14:09:21.522Z,101888.27
2018-12-27T14:13:26.549Z,101882.77
2018-12-27T14:17:31.548Z,101897.38
2018-12-27T14:21:36.479Z,101896.46
2018-12-27T14:25:41.563Z,101903.16
2018-12-27T14:29:46.630Z,101897.74
2018-12-27T14:33:51.720Z,101902.00
2018-12-27T14:38:12.197Z,101898.23
2018-12-27T14:42:17.194Z,101892.97
2018-12-27T14:46:22.339Z,101894.30
2018-12-27T14:50:27.470Z,101892.95
2018-12-27T14:54:32.817Z,101890.84
2018-12-27T14:58:37.793Z,101905.89
2018-12-27T15:02:42.939Z,101901.59
2018-12-27T15:06:48.876Z,101903.39
2018-12-27T15:11:00.382Z,101902.84
2018-12-27T15:15:05.602Z,101905.42
2018-12-27T15:19:10.598Z,101900.01
2018-12-27T15:23:15.535Z,101906.70
2018-12-27T15:27:20.499Z,101912.98
2018-12-27T15:31:25.838Z,101910.08
2018-12-27T15:35:30.889Z,101906.67
2018-12-27T15:39:35.870Z,101890.72
2018-12-27T15:43:40.882Z,101898.00
2018-12-27T15:47:45.984Z,101893.12
2018-12-27T15:51:50.923Z,101894.05
2018-12-27T15:55:56.015Z,101886.88
2018-12-27T16:00:01.068Z,101891.98
2018-12-27T16:04:06.045Z,101900.80
2018-12-27T16:08:11.128Z,101916.66
2018-12-27T16:12:16.411Z,101912.69
2018-12-27T16:16:21.484Z,101918.80
2018-12-27T16:20:27.770Z,101923.62
2018-12-27T16:24:32.764Z,101924.00
2018-12-27T16:28:38.018Z,101917.62
2018-12-27T16:33:02.132Z,101911.77
2018-12-27T16:37:09.199Z,101902.88
2018-12-27T16:41:19.712Z,101906.33
2018-12-27T16:45:24.770Z,101908.29
2018-12-27T16:49:29.957Z,101909.19
2018-12-27T16:53:35.335Z,101915.67
2018-12-27T16:57:40.534Z,101908.18
2018-12-27T17:01:45.615Z,101909.17
2018-12-27T17:05:50.720Z,101909.19
2018-12-27T17:09:55.833Z,101910.63
2018-12-27T17:14:20.032Z,101903.98
2018-12-27T17:18:25.045Z,101908.73
2018-12-27T17:22:30.035Z,101900.88
2018-12-27T17:26:35.110Z,101897.38
2018-12-27T17:30:40.223Z,101895.97
2018-12-27T17:34:45.329Z,101886.89
2018-12-27T17:38:50.580Z,101882.61
2018-12-27T17:42:55.584Z,101889.39
2018-12-27T17:47:00.648Z,101895.34
2018-12-27T17:51:05.927Z,101889.91
2018-12-27T17:55:10.926Z,101889.30
2018-12-27T17:59:16.007Z,101878.94
2018-12-27T18:03:20.960Z,101882.55
2018-12-27T18:07:30.548Z,101879.45
2018-12-27T18:11:38.539Z,101890.17
2018-12-27T18:15:43.526Z,101895.48
2018-12-27T18:19:48.633Z,101894.11
2018-12-27T18:23:53.681Z,101897.34
2018-12-27T18:27:58.962Z,101899.70
2018-12-27T18:32:04.049Z,101907.80
2018-12-27T18:36:09.168Z,101905.00
2018-12-27T18:40:14.326Z,101906.52
2018-12-27T18:44:19.346Z,101901.78
2018-12-27T18:48:24.409Z,101899.69
2018-12-27T18:56:59.471Z,101873.29
2018-12-27T19:01:04.659Z,101890.46
2018-12-27T19:05:09.737Z,101894.84
2018-12-27T19:09:14.744Z,101904.92
2018-12-27T19:13:19.763Z,101914.41
2018-12-27T19:17:29.417Z,101904.66
2018-12-27T19:22:10.578Z,101899.20
2018-12-27T19:26:15.592Z,101896.67
2018-12-27T19:30:20.724Z,101909.70
2018-12-27T19:34:25.703Z,101913.12
2018-12-27T19:38:30.833Z,101916.18
2018-12-27T19:42:35.903Z,101925.02
2018-12-27T19:46:41.025Z,101913.15
2018-12-27T19:50:46.092Z,101921.71
2018-12-27T19:54:51.357Z,101911.56
2018-12-27T19:58:56.454Z,101918.23
2018-12-27T20:03:01.530Z,101935.79
2018-12-27T20:07:06.622Z,101933.27
2018-12-27T20:11:11.826Z,101920.60
2018-12-27T20:15:16.858Z,101910.19
2018-12-27T20:19:21.867Z,101912.30
2018-12-27T20:23:27.082Z,101918.34
2018-12-27T20:27:32.165Z,101924.56
2018-12-27T20:36:06.533Z,101932.88
2018-12-27T20:40:11.624Z,101917.95
2018-12-27T20:44:16.934Z,101903.08
2018-12-27T20:48:22.053Z,101906.23
2018-12-27T20:52:27.046Z,101897.09
2018-12-27T20:56:32.052Z,101895.73
2018-12-27T21:00:38.707Z,101880.90
2018-12-27T21:04:43.792Z,101880.66
2018-12-27T21:08:48.790Z,101890.08
2018-12-27T21:12:54.115Z,101895.00
2018-12-27T21:16:59.180Z,101904.39
2018-12-27T21:21:04.241Z,101915.95
2018-12-27T21:25:09.353Z,101912.09
2018-12-27T21:29:14.410Z,101914.95
2018-12-27T21:33:19.730Z,101901.94
2018-12-27T21:37:24.734Z,101918.48
2018-12-27T21:41:29.784Z,101912.09
2018-12-27T21:45:34.842Z,101916.39
2018-12-27T21:49:39.988Z,101909.50
2018-12-27T21:53:45.094Z,101910.30
2018-12-27T21:57:50.481Z,101922.94
2018-12-27T22:01:55.545Z,101913.34
2018-12-27T22:06:00.624Z,101919.08
2018-12-27T22:10:06.395Z,101924.23
2018-12-27T22:14:11.427Z,101919.97
2018-12-27T22:18:16.489Z,101925.16
2018-12-27T22:22:21.559Z,101906.39
2018-12-27T22:26:26.578Z,101905.61
2018-12-27T22:30:50.542Z,101908.56
2018-12-27T22:34:55.582Z,101910.69
2018-12-27T22:39:00.661Z,101910.69
2018-12-27T22:43:05.698Z,101913.34
2018-12-27T22:47:10.710Z,101927.28
2018-12-27T22:51:15.777Z,101933.81
2018-12-27T22:55:28.027Z,101939.52
2018-12-27T22:59:33.117Z,101945.16
2018-12-27T23:03:38.142Z,101948.61
2018-12-27T23:07:43.385Z,101956.43
2018-12-27T23:11:48.433Z,101951.64
2018-12-27T23:15:53.499Z,101960.75
2018-12-27T23:19:58.568Z,101959.44
2018-12-27T23:24:03.549Z,101952.95
2018-12-27T23:28:08.536Z,101962.04
2018-12-27T23:32:13.497Z,101961.13
2018-12-27T23:36:18.629Z,101959.88
2018-12-27T23:40:23.662Z,101956.84
2018-12-27T23:44:28.611Z,101946.86
2018-12-27T23:48:33.633Z,101938.63
2018-12-27T23:52:38.634Z,101919.56
2018-12-27T23:56:43.770Z,101922.16
